Terminal Aerodrome Forecast
Issued by NWS

Home | Current Version | Previous Version | Text Only | Print | Product List | Glossary Off
Versions: 1 2 3 4 5 6 7 8 9 10 11 12 13 14 15 16 17 18 19 20 21 22 23 24 25 26 27 28 29 30 31 32 33 34 35 36 37 38 39 40 41 42 43 44 45 46 47 48 49 50

000
FTUS43 KLOT 290536
TAFGYY
TAF
KGYY 290536Z 2906/3006 14005KT P6SM SCT100 BKN250
     FM291100 17009KT P6SM BKN100
     FM291700 19012G17KT P6SM VCTS BKN035CB
      TEMPO 2918/2920 3SM TSRA SCT020 OVC035CB
     FM292100 21014G21KT P6SM BKN035
     FM300000 21008KT P6SM SCT045 BKN250=

USA.gov is the U.S. government's official web portal to all federal, state and local government web resources and services.